Terminal Aerodrome Forecast
Issued by NWS

Home | Current Version | Previous Version | Text Only | Print | Product List | Glossary On
Versions: 1 2 3 4 5 6 7 8 9 10 11 12 13 14
512
FTUS42 KJAX 230250 AAA
TAFCRG
TAF AMD
KCRG 230250Z 2303/2324 07006KT P6SM FEW025 SCT250
     FM230600 03004KT P6SM VCSH SCT020 BKN070
     FM231300 06011G16KT 5SM SHRA BR BKN025 OVC060
     FM231600 07013G21KT P6SM SHRA BKN030=

USA.gov is the U.S. government's official web portal to all federal, state and local government web resources and services.